createdAt,value
2019-04-11T00:02:10.061Z,99034.98
2019-04-11T00:04:42.037Z,99029.50
2019-04-11T00:07:14.432Z,99040.89
2019-04-11T00:09:45.421Z,99040.50
2019-04-11T00:12:18.722Z,99040.69
2019-04-11T00:14:49.217Z,99040.00
2019-04-11T00:17:21.630Z,99045.09
2019-04-11T00:19:52.286Z,99051.92
2019-04-11T00:22:25.972Z,99051.97
2019-04-11T00:24:58.981Z,99052.00
2019-04-11T00:27:30.840Z,99054.05
2019-04-11T00:30:01.992Z,99048.92
2019-04-11T00:32:33.822Z,99045.95
2019-04-11T00:35:05.619Z,99056.06
2019-04-11T00:37:37.034Z,99054.47
2019-04-11T00:40:08.979Z,99052.42
2019-04-11T00:42:40.933Z,99049.92
2019-04-11T00:45:13.648Z,99046.45
2019-04-11T00:47:44.990Z,99043.01
2019-04-11T00:50:15.487Z,99042.66
2019-04-11T00:52:47.595Z,99049.53
2019-04-11T00:55:19.631Z,99053.70
2019-04-11T00:57:50.300Z,99047.37
2019-04-11T01:00:22.824Z,99049.07
2019-04-11T01:02:53.751Z,99048.68
2019-04-11T01:05:25.615Z,99052.47
2019-04-11T01:07:57.664Z,99048.30
2019-04-11T01:10:28.375Z,99052.19
2019-04-11T01:13:00.790Z,99047.91
2019-04-11T01:15:31.405Z,99049.25
2019-04-11T01:18:04.194Z,99054.31
2019-04-11T01:20:41.918Z,99047.05
2019-04-11T01:23:18.594Z,99050.91
2019-04-11T01:25:59.004Z,99063.65
2019-04-11T01:28:36.762Z,99072.59
2019-04-11T01:31:15.633Z,99064.99
2019-04-11T01:33:58.036Z,99053.53
2019-04-11T01:36:35.257Z,99057.42
2019-04-11T01:39:28.028Z,99055.69
2019-04-11T01:42:16.641Z,99050.70
2019-04-11T01:44:49.782Z,99057.00
2019-04-11T01:48:03.702Z,99068.09
2019-04-11T01:50:45.064Z,99060.06
2019-04-11T01:53:37.323Z,99060.46
2019-04-11T01:56:11.156Z,99055.83
2019-04-11T01:58:44.715Z,99060.10
2019-04-11T02:01:49.367Z,99056.70
2019-04-11T02:04:28.328Z,99060.52
2019-04-11T02:07:10.145Z,99054.59
2019-04-11T02:09:50.518Z,99063.07
2019-04-11T02:12:30.941Z,99075.02
2019-04-11T02:15:06.022Z,99077.04
2019-04-11T02:17:43.465Z,99074.13
2019-04-11T02:20:17.161Z,99075.80
2019-04-11T02:23:15.067Z,99082.69
2019-04-11T02:26:10.067Z,99082.23
2019-04-11T02:28:44.551Z,99072.53
2019-04-11T02:31:17.149Z,99073.41
2019-04-11T02:33:51.171Z,99075.05
2019-04-11T02:36:22.420Z,99078.92
2019-04-11T02:38:56.576Z,99079.80
2019-04-11T02:41:25.515Z,99066.59
2019-04-11T02:43:57.970Z,99080.14
2019-04-11T02:46:41.221Z,99080.17
2019-04-11T02:49:03.251Z,99081.44
2019-04-11T02:51:35.065Z,99081.08
2019-04-11T02:54:11.505Z,99079.33
2019-04-11T02:56:45.547Z,99080.66
2019-04-11T02:59:17.588Z,99078.17
2019-04-11T03:01:50.937Z,99094.34
2019-04-11T03:04:24.494Z,99082.44
2019-04-11T03:06:57.421Z,99089.28
2019-04-11T03:09:29.127Z,99087.56
2019-04-11T03:11:59.671Z,99097.28
2019-04-11T03:14:46.123Z,99087.16
2019-04-11T03:17:14.058Z,99107.09
2019-04-11T03:19:49.226Z,99092.25
2019-04-11T03:22:09.968Z,99085.04
2019-04-11T03:24:42.754Z,99094.41
2019-04-11T03:27:15.535Z,99095.73
2019-04-11T03:29:47.152Z,99119.90
2019-04-11T03:33:07.282Z,99124.98
2019-04-11T03:36:00.735Z,99101.27
2019-04-11T03:37:54.706Z,99102.98
2019-04-11T03:40:23.844Z,99105.11
2019-04-11T03:42:46.523Z,99123.74
2019-04-11T03:45:32.798Z,99108.13
2019-04-11T03:48:03.781Z,99106.48
2019-04-11T03:50:21.976Z,99114.95
2019-04-11T03:52:51.864Z,99108.25
2019-04-11T03:55:28.389Z,99113.78
2019-04-11T03:58:01.309Z,99122.25
2019-04-11T04:00:35.977Z,99113.78
2019-04-11T04:03:09.112Z,99112.53
2019-04-11T04:05:42.309Z,99108.30
2019-04-11T04:08:15.562Z,99113.38
2019-04-11T04:11:06.250Z,99125.23
2019-04-11T04:13:39.920Z,99119.72
2019-04-11T04:16:36.560Z,99131.58
2019-04-11T04:19:25.143Z,99125.27
2019-04-11T04:22:11.124Z,99131.22
2019-04-11T04:24:43.221Z,99145.66
2019-04-11T04:27:15.488Z,99162.58
2019-04-11T04:29:52.855Z,99146.05
2019-04-11T04:32:23.694Z,99159.59
2019-04-11T04:34:56.036Z,99153.70
2019-04-11T04:37:29.601Z,99161.80
2019-04-11T04:40:21.654Z,99167.73
2019-04-11T04:42:40.352Z,99166.42
2019-04-11T04:45:11.806Z,99179.13
2019-04-11T04:47:51.420Z,99179.61
2019-04-11T04:50:18.058Z,99163.91
2019-04-11T04:52:51.585Z,99167.70
2019-04-11T04:55:23.564Z,99178.26
2019-04-11T04:57:57.684Z,99177.49
2019-04-11T05:00:34.837Z,99177.86
2019-04-11T05:03:07.493Z,99190.99
2019-04-11T05:05:38.509Z,99188.40
2019-04-11T05:08:10.654Z,99199.02
2019-04-11T05:10:43.140Z,99214.24
2019-04-11T05:13:17.211Z,99204.51
2019-04-11T05:15:48.989Z,99201.16
2019-04-11T05:18:20.754Z,99195.17
2019-04-11T05:20:54.776Z,99213.45
2019-04-11T05:23:25.722Z,99211.80
2019-04-11T05:25:57.167Z,99225.72
2019-04-11T05:28:29.826Z,99213.77
2019-04-11T05:31:00.688Z,99210.80
2019-04-11T05:33:31.916Z,99214.20
2019-04-11T05:36:04.020Z,99208.24
2019-04-11T05:38:35.994Z,99217.97
2019-04-11T05:41:12.128Z,99219.23
2019-04-11T05:43:41.819Z,99214.99
2019-04-11T05:46:26.051Z,99220.52
2019-04-11T05:49:16.921Z,99208.61
2019-04-11T05:51:58.880Z,99214.84
2019-04-11T05:54:36.484Z,99220.40
2019-04-11T05:57:09.110Z,99217.34
2019-04-11T05:59:41.212Z,99218.55
2019-04-11T06:02:21.394Z,99252.52
2019-04-11T06:05:02.782Z,99234.80
2019-04-11T06:07:42.091Z,99243.32
2019-04-11T06:10:18.389Z,99226.08
2019-04-11T06:13:13.308Z,99241.79
2019-04-11T06:15:47.316Z,99229.41
2019-04-11T06:18:33.114Z,99230.25
2019-04-11T06:21:09.497Z,99233.75
2019-04-11T06:24:09.923Z,99226.00
2019-04-11T06:26:58.874Z,99235.77
2019-04-11T06:29:41.243Z,99241.75
2019-04-11T06:32:47.883Z,99235.38
2019-04-11T06:35:28.768Z,99236.95
2019-04-11T06:38:18.554Z,99242.88
2019-04-11T06:41:04.094Z,99227.48
2019-04-11T06:43:47.958Z,99234.58
2019-04-11T06:46:55.776Z,99240.70
2019-04-11T06:49:36.319Z,99234.65
2019-04-11T06:52:10.612Z,99270.75
2019-04-11T06:54:58.598Z,99244.45
2019-04-11T06:57:32.026Z,99240.98
2019-04-11T07:00:03.445Z,99245.26
2019-04-11T07:02:38.931Z,99246.93
2019-04-11T07:05:11.838Z,99252.38
2019-04-11T07:07:47.327Z,99256.22
2019-04-11T07:10:20.857Z,99263.53
2019-04-11T07:13:03.487Z,99244.83
2019-04-11T07:15:50.612Z,99256.24
2019-04-11T07:18:40.261Z,99271.85
2019-04-11T07:21:12.197Z,99257.41
2019-04-11T07:24:03.241Z,99259.03
2019-04-11T07:26:58.834Z,99255.17
2019-04-11T07:30:01.496Z,99255.58
2019-04-11T07:32:32.522Z,99269.34
2019-04-11T07:35:27.644Z,99263.22
2019-04-11T07:38:01.092Z,99259.11
2019-04-11T07:41:00.661Z,99270.57
2019-04-11T07:43:35.443Z,99300.64
2019-04-11T07:46:25.558Z,99268.61
2019-04-11T07:49:10.039Z,99272.23
2019-04-11T07:51:50.689Z,99291.87
2019-04-11T07:54:25.945Z,99283.11
2019-04-11T07:57:32.383Z,99287.91
2019-04-11T08:00:36.730Z,99295.27
2019-04-11T08:03:21.465Z,99295.55
2019-04-11T08:06:11.713Z,99303.20
2019-04-11T08:09:05.037Z,99300.55
2019-04-11T08:11:45.387Z,99309.41
2019-04-11T08:14:44.596Z,99299.94
2019-04-11T08:17:27.903Z,99303.45
2019-04-11T08:20:08.057Z,99303.34
2019-04-11T08:22:47.762Z,99296.53
2019-04-11T08:25:57.754Z,99304.61
2019-04-11T08:28:28.952Z,99304.80
2019-04-11T08:31:11.034Z,99305.83
2019-04-11T08:33:43.888Z,99303.59
2019-04-11T08:36:33.775Z,99301.69
2019-04-11T08:39:11.660Z,99296.91
2019-04-11T08:42:03.129Z,99295.95
2019-04-11T08:44:39.661Z,99294.08
2019-04-11T08:47:13.047Z,99300.44
2019-04-11T08:49:48.171Z,99302.22
2019-04-11T08:52:38.510Z,99300.38
2019-04-11T08:55:17.249Z,99291.47
2019-04-11T08:57:51.892Z,99310.45
2019-04-11T09:00:42.305Z,99296.83
2019-04-11T09:03:29.468Z,99290.28
2019-04-11T09:06:06.187Z,99295.00
2019-04-11T09:09:02.813Z,99299.18
2019-04-11T09:11:47.041Z,99299.95
2019-04-11T09:14:41.071Z,99301.16
2019-04-11T09:17:44.465Z,99298.70
2019-04-11T09:20:38.333Z,99311.80
2019-04-11T09:23:11.441Z,99301.00
2019-04-11T09:26:20.200Z,99309.52
2019-04-11T09:28:54.593Z,99303.38
2019-04-11T09:31:51.989Z,99294.91
2019-04-11T09:34:40.089Z,99315.41
2019-04-11T09:37:30.965Z,99308.83
2019-04-11T09:40:26.065Z,99291.20
2019-04-11T09:43:15.996Z,99295.61
2019-04-11T09:46:24.105Z,99289.97
2019-04-11T09:49:12.368Z,99313.20
2019-04-11T09:51:56.083Z,99300.47
2019-04-11T09:54:42.068Z,99309.69
2019-04-11T09:57:34.526Z,99294.09
2019-04-11T10:00:27.381Z,99287.53
2019-04-11T10:03:08.752Z,99303.50
2019-04-11T10:05:59.767Z,99294.36
2019-04-11T10:08:51.217Z,99292.17
2019-04-11T10:11:55.006Z,99294.81
2019-04-11T10:14:27.331Z,99285.31
2019-04-11T10:17:26.882Z,99312.92
2019-04-11T10:20:04.637Z,99294.13
2019-04-11T10:23:12.486Z,99289.16
2019-04-11T10:25:52.255Z,99282.31
2019-04-11T10:28:49.597Z,99281.22
2019-04-11T10:31:22.485Z,99283.92
2019-04-11T10:34:27.852Z,99286.38
2019-04-11T10:37:04.450Z,99281.38
2019-04-11T10:39:54.607Z,99296.69
2019-04-11T10:42:26.843Z,99304.25
2019-04-11T10:45:16.999Z,99293.51
2019-04-11T10:47:49.304Z,99306.30
2019-04-11T10:50:53.591Z,99303.41
2019-04-11T10:53:26.878Z,99297.91
2019-04-11T10:56:18.117Z,99302.34
2019-04-11T10:58:51.283Z,99305.41
2019-04-11T11:01:40.431Z,99299.71
2019-04-11T11:04:15.882Z,99303.58
2019-04-11T11:06:51.794Z,99314.83
2019-04-11T11:09:36.800Z,99306.48
2019-04-11T11:12:27.413Z,99303.58
2019-04-11T11:15:09.637Z,99321.72
2019-04-11T11:18:31.040Z,99316.59
2019-04-11T11:20:51.512Z,99320.05
2019-04-11T11:23:37.342Z,99318.75
2019-04-11T11:26:10.827Z,99320.15
2019-04-11T11:28:52.580Z,99319.72
2019-04-11T11:31:48.084Z,99322.19
2019-04-11T11:34:26.305Z,99317.88
2019-04-11T11:37:25.885Z,99323.46
2019-04-11T11:40:18.031Z,99324.38
2019-04-11T11:43:08.713Z,99325.28
2019-04-11T11:45:51.610Z,99328.86
2019-04-11T11:48:54.382Z,99323.37
2019-04-11T11:51:47.784Z,99330.92
2019-04-11T11:54:21.940Z,99332.35
2019-04-11T11:56:54.404Z,99338.45
2019-04-11T11:59:44.828Z,99333.50
2019-04-11T12:02:26.378Z,99329.34
2019-04-11T12:05:26.098Z,99333.33
2019-04-11T12:08:16.604Z,99340.66
2019-04-11T12:11:01.848Z,99350.45
2019-04-11T12:14:00.012Z,99353.50
2019-04-11T12:17:03.306Z,99354.09
2019-04-11T12:19:47.669Z,99351.53
2019-04-11T12:22:13.257Z,99356.28
2019-04-11T12:24:57.199Z,99345.15
2019-04-11T12:27:53.815Z,99331.73
2019-04-11T12:30:44.150Z,99345.22
2019-04-11T12:33:35.329Z,99344.89
2019-04-11T12:36:16.747Z,99352.99
2019-04-11T12:39:17.021Z,99346.43
2019-04-11T12:42:04.692Z,99345.11
2019-04-11T12:44:43.776Z,99350.20
2019-04-11T12:47:38.330Z,99351.38
2019-04-11T12:50:31.271Z,99355.97
2019-04-11T12:53:13.703Z,99366.11
2019-04-11T12:56:17.301Z,99351.88
2019-04-11T12:59:09.558Z,99347.23
2019-04-11T13:01:58.327Z,99351.83
2019-04-11T13:04:31.999Z,99357.32
2019-04-11T13:07:24.358Z,99351.23
2019-04-11T13:10:14.267Z,99347.08
2019-04-11T13:13:04.018Z,99347.34
2019-04-11T13:15:41.091Z,99370.84
2019-04-11T13:18:20.446Z,99357.38
2019-04-11T13:20:56.473Z,99357.84
2019-04-11T13:23:40.568Z,99366.80
2019-04-11T13:26:39.367Z,99356.58
2019-04-11T13:29:38.334Z,99375.47
2019-04-11T13:32:34.511Z,99364.00
2019-04-11T13:35:23.668Z,99356.11
2019-04-11T13:38:07.349Z,99351.98
2019-04-11T13:41:03.560Z,99355.34
2019-04-11T13:43:51.419Z,99360.66
2019-04-11T13:46:47.158Z,99356.20
2019-04-11T13:49:35.761Z,99359.84
2019-04-11T13:52:29.728Z,99365.39
2019-04-11T13:55:18.988Z,99350.00
2019-04-11T13:58:12.697Z,99372.91
2019-04-11T14:00:57.057Z,99343.94
2019-04-11T14:03:46.754Z,99343.94
2019-04-11T14:06:40.575Z,99346.30
2019-04-11T14:09:33.605Z,99358.75
2019-04-11T14:12:09.836Z,99348.73
2019-04-11T14:14:59.053Z,99350.05
2019-04-11T14:17:51.876Z,99347.16
2019-04-11T14:20:29.660Z,99362.31
2019-04-11T14:23:16.656Z,99352.18
2019-04-11T14:26:08.125Z,99357.62
2019-04-11T14:29:05.717Z,99347.02
2019-04-11T14:32:10.213Z,99356.25
2019-04-11T14:35:02.549Z,99381.39
2019-04-11T14:37:56.134Z,99376.79
2019-04-11T14:40:42.728Z,99364.91
2019-04-11T14:43:27.759Z,99358.09
2019-04-11T14:46:22.329Z,99372.11
2019-04-11T14:49:10.207Z,99357.72
2019-04-11T14:51:58.577Z,99369.89
2019-04-11T14:54:49.224Z,99363.45
2019-04-11T14:57:48.196Z,99362.06
2019-04-11T15:00:34.065Z,99368.46
2019-04-11T15:03:22.873Z,99359.88
2019-04-11T15:06:22.865Z,99356.92
2019-04-11T15:09:11.259Z,99373.63
2019-04-11T15:12:08.575Z,99372.73
2019-04-11T15:15:02.032Z,99373.38
2019-04-11T15:17:37.551Z,99370.81
2019-04-11T15:20:24.479Z,99387.98
2019-04-11T15:23:07.674Z,99381.30
2019-04-11T15:26:09.016Z,99381.89
2019-04-11T15:28:58.214Z,99390.67
2019-04-11T15:31:47.747Z,99378.91
2019-04-11T15:34:37.597Z,99381.73
2019-04-11T15:37:36.010Z,99405.19
2019-04-11T15:40:37.724Z,99388.47
2019-04-11T15:43:42.212Z,99391.80
2019-04-11T15:46:18.975Z,99396.02
2019-04-11T15:49:19.963Z,99400.70
2019-04-11T15:52:01.863Z,99402.37
2019-04-11T15:54:55.186Z,99401.09
2019-04-11T15:57:34.667Z,99413.05
2019-04-11T16:00:29.360Z,99419.28
2019-04-11T16:03:13.520Z,99419.36
2019-04-11T16:06:02.835Z,99427.78
2019-04-11T16:09:03.134Z,99420.55
2019-04-11T16:11:53.924Z,99420.58
2019-04-11T16:14:43.689Z,99431.33
2019-04-11T16:17:36.485Z,99425.47
2019-04-11T16:20:20.215Z,99446.28
2019-04-11T16:23:10.296Z,99440.36
2019-04-11T16:25:47.131Z,99439.47
2019-04-11T16:28:43.795Z,99441.70
2019-04-11T16:31:15.024Z,99437.57
2019-04-11T16:34:17.952Z,99448.30
2019-04-11T16:36:54.067Z,99436.36
2019-04-11T16:39:54.848Z,99458.47
2019-04-11T16:42:42.474Z,99447.92
2019-04-11T16:45:40.630Z,99442.45
2019-04-11T16:48:11.704Z,99459.83
2019-04-11T16:50:43.501Z,99456.52
2019-04-11T16:53:15.097Z,99472.77
2019-04-11T16:55:47.804Z,99463.95
2019-04-11T16:58:19.601Z,99472.50
2019-04-11T17:00:52.583Z,99486.13
2019-04-11T17:03:25.680Z,99473.48
2019-04-11T17:06:44.226Z,99474.31
2019-04-11T17:09:31.998Z,99475.14
2019-04-11T17:12:04.845Z,99490.98
2019-04-11T17:14:35.224Z,99502.48
2019-04-11T17:17:14.981Z,99495.32
2019-04-11T17:19:38.822Z,99497.03
2019-04-11T17:22:10.199Z,99511.05
2019-04-11T17:24:41.030Z,99512.38
2019-04-11T17:27:12.892Z,99509.82
2019-04-11T17:29:44.837Z,99512.39
2019-04-11T17:32:16.833Z,99526.86
2019-04-11T17:34:47.779Z,99522.69
2019-04-11T17:37:19.770Z,99524.41
2019-04-11T17:39:51.813Z,99535.03
2019-04-11T17:42:23.405Z,99535.48
2019-04-11T17:44:55.370Z,99538.90
2019-04-11T17:47:27.066Z,99527.87
2019-04-11T17:49:59.566Z,99535.06
2019-04-11T17:52:30.173Z,99538.03
2019-04-11T17:55:01.830Z,99547.39
2019-04-11T17:57:32.925Z,99551.63
2019-04-11T18:00:05.346Z,99543.16
2019-04-11T18:02:39.027Z,99564.78
2019-04-11T18:05:08.715Z,99560.12
2019-04-11T18:07:41.494Z,99556.30
2019-04-11T18:10:12.442Z,99563.49
2019-04-11T18:12:43.890Z,99574.52
2019-04-11T18:15:15.533Z,99577.91
2019-04-11T18:17:47.190Z,99571.56
2019-04-11T18:20:20.028Z,99581.30
2019-04-11T18:22:50.954Z,99576.20
2019-04-11T18:25:22.042Z,99580.86
2019-04-11T18:27:53.647Z,99585.55
2019-04-11T18:30:24.726Z,99591.92
2019-04-11T18:32:56.537Z,99597.00
2019-04-11T18:35:31.763Z,99604.19
2019-04-11T18:38:02.682Z,99597.41
2019-04-11T18:40:34.460Z,99590.19
2019-04-11T18:43:06.352Z,99596.98
2019-04-11T18:45:38.073Z,99594.01
2019-04-11T18:48:09.564Z,99597.39
2019-04-11T18:50:41.122Z,99596.55
2019-04-11T18:53:12.779Z,99606.27
2019-04-11T18:55:44.814Z,99613.05
2019-04-11T18:58:15.798Z,99605.40
2019-04-11T19:00:47.652Z,99605.81
2019-04-11T19:03:19.559Z,99618.56
2019-04-11T19:05:51.454Z,99597.35
2019-04-11T19:08:22.526Z,99599.02
2019-04-11T19:10:54.294Z,99600.70
2019-04-11T19:13:26.008Z,99594.36
2019-04-11T19:15:57.993Z,99600.73
2019-04-11T19:18:29.070Z,99607.48
2019-04-11T19:21:01.000Z,99610.46
2019-04-11T19:23:32.799Z,99610.48
2019-04-11T19:26:04.640Z,99619.39
2019-04-11T19:28:36.300Z,99626.19
2019-04-11T19:31:07.520Z,99623.65
2019-04-11T19:33:39.975Z,99620.25
2019-04-11T19:36:12.297Z,99621.95
2019-04-11T19:38:43.967Z,99645.73
2019-04-11T19:41:17.463Z,99620.68
2019-04-11T19:43:49.816Z,99613.91
2019-04-11T19:46:21.002Z,99611.38
2019-04-11T19:48:55.364Z,99606.69
2019-04-11T19:51:28.785Z,99603.28
2019-04-11T19:54:03.021Z,99612.23
2019-04-11T19:56:41.348Z,99629.19
2019-04-11T19:59:14.314Z,99612.20
2019-04-11T20:01:45.427Z,99611.78
2019-04-11T20:04:34.160Z,99608.81
2019-04-11T20:07:22.689Z,99629.60
2019-04-11T20:10:11.444Z,99613.50
2019-04-11T20:13:01.988Z,99628.33
2019-04-11T20:15:50.608Z,99624.53
2019-04-11T20:18:50.420Z,99621.13
2019-04-11T20:21:28.892Z,99616.45
2019-04-11T20:24:17.424Z,99617.73
2019-04-11T20:27:05.734Z,99630.05
2019-04-11T20:29:55.358Z,99615.65
2019-04-11T20:32:44.146Z,99622.00
2019-04-11T20:35:32.638Z,99610.56
2019-04-11T20:38:20.847Z,99620.73
2019-04-11T20:41:09.270Z,99618.19
2019-04-11T20:43:57.893Z,99611.41
2019-04-11T20:46:46.038Z,99608.45
2019-04-11T20:49:45.625Z,99608.86
2019-04-11T20:52:33.915Z,99594.47
2019-04-11T20:55:22.679Z,99608.03
2019-04-11T20:58:11.103Z,99615.24
2019-04-11T21:01:00.611Z,99600.41
2019-04-11T21:03:48.999Z,99607.17
2019-04-11T21:06:37.594Z,99620.32
2019-04-11T21:09:25.854Z,99633.47
2019-04-11T21:12:16.475Z,99620.35
2019-04-11T21:15:05.324Z,99629.23
2019-04-11T21:17:56.124Z,99644.92
2019-04-11T21:20:44.062Z,99621.63
2019-04-11T21:23:32.981Z,99630.93
2019-04-11T21:26:21.217Z,99623.73
2019-04-11T21:29:10.177Z,99628.39
2019-04-11T21:32:00.919Z,99622.02
2019-04-11T21:34:55.830Z,99619.08
2019-04-11T21:37:44.374Z,99627.56
2019-04-11T21:40:35.620Z,99651.30
2019-04-11T21:43:23.153Z,99643.65
2019-04-11T21:46:11.458Z,99646.20
2019-04-11T21:48:59.788Z,99640.70
2019-04-11T21:51:48.061Z,99650.45
2019-04-11T21:55:02.788Z,99633.92
2019-04-11T21:57:51.437Z,99644.95
2019-04-11T22:00:43.622Z,99638.98
2019-04-11T22:03:32.956Z,99640.67
2019-04-11T22:06:21.224Z,99648.33
2019-04-11T22:09:10.298Z,99638.56
2019-04-11T22:11:59.948Z,99633.48
2019-04-11T22:14:48.606Z,99637.30
2019-04-11T22:17:37.066Z,99650.44
2019-04-11T22:20:25.742Z,99647.05
2019-04-11T22:23:14.165Z,99647.89
2019-04-11T22:26:02.723Z,99666.96
2019-04-11T22:28:54.918Z,99658.05
2019-04-11T22:31:41.173Z,99654.67
2019-04-11T22:34:43.946Z,99661.03
2019-04-11T22:37:32.571Z,99651.71
2019-04-11T22:40:20.817Z,99656.80
2019-04-11T22:43:21.747Z,99652.97
2019-04-11T22:45:59.598Z,99658.91
2019-04-11T22:48:47.835Z,99670.34
2019-04-11T22:51:36.205Z,99645.75
2019-04-11T22:54:24.772Z,99656.36
2019-04-11T22:57:13.453Z,99649.56
2019-04-11T23:00:01.752Z,99676.26
2019-04-11T23:03:08.920Z,99644.91
2019-04-11T23:05:57.788Z,99643.63
2019-04-11T23:08:48.532Z,99652.97
2019-04-11T23:11:36.411Z,99649.98
2019-04-11T23:14:24.613Z,99655.09
2019-04-11T23:17:14.197Z,99649.16
2019-04-11T23:20:03.646Z,99661.02
2019-04-11T23:22:52.214Z,99641.95
2019-04-11T23:25:40.377Z,99654.64
2019-04-11T23:28:28.609Z,99646.59
2019-04-11T23:31:19.922Z,99654.64
2019-04-11T23:34:07.212Z,99651.69
2019-04-11T23:36:56.062Z,99646.17
2019-04-11T23:39:44.491Z,99648.27
2019-04-11T23:42:33.140Z,99644.89
2019-04-11T23:45:24.426Z,99647.45
2019-04-11T23:48:12.665Z,99657.61
2019-04-11T23:51:00.987Z,99651.65
2019-04-11T23:53:49.680Z,99656.75
2019-04-11T23:56:38.027Z,99655.88
2019-04-11T23:59:31.726Z,99653.74
